createdAt,value
2023-09-08T00:00:18.172Z,14.20
2023-09-08T00:03:06.418Z,14.17
2023-09-08T00:05:34.651Z,14.15
2023-09-08T00:08:02.728Z,14.13
2023-09-08T00:10:30.928Z,14.10
2023-09-08T00:12:58.902Z,14.08
2023-09-08T00:15:27.013Z,14.07
2023-09-08T00:17:55.120Z,14.05
2023-09-08T00:20:23.364Z,14.04
2023-09-08T00:22:51.531Z,14.03
2023-09-08T00:25:19.781Z,14.03
2023-09-08T00:27:47.733Z,14.04
2023-09-08T00:30:15.850Z,14.05
2023-09-08T00:32:44.221Z,14.07
2023-09-08T00:35:14.317Z,14.08
2023-09-08T00:37:42.551Z,14.08
2023-09-08T00:40:11.842Z,14.09
2023-09-08T00:42:39.890Z,14.09
2023-09-08T00:45:08.386Z,14.08
2023-09-08T00:47:36.564Z,14.08
2023-09-08T00:50:06.097Z,14.08
2023-09-08T00:52:35.257Z,14.07
2023-09-08T00:55:03.408Z,14.06
2023-09-08T00:57:32.274Z,14.04
2023-09-08T01:00:00.850Z,14.04
2023-09-08T01:02:29.742Z,14.05
2023-09-08T01:05:01.047Z,14.07
2023-09-08T01:07:55.357Z,14.08
2023-09-08T01:10:23.892Z,14.09
2023-09-08T01:12:51.857Z,14.11
2023-09-08T01:15:20.532Z,14.13
2023-09-08T01:17:48.652Z,14.16
2023-09-08T01:20:24.272Z,14.16
2023-09-08T01:23:10.291Z,14.14
2023-09-08T01:25:52.263Z,14.12
2023-09-08T01:28:21.747Z,14.11
2023-09-08T01:30:50.736Z,14.11
2023-09-08T01:36:12.728Z,14.10
2023-09-08T01:38:40.923Z,14.09
2023-09-08T01:41:09.445Z,14.06
2023-09-08T01:43:37.500Z,14.04
2023-09-08T01:46:05.896Z,14.01
2023-09-08T01:48:34.451Z,13.99
2023-09-08T01:51:02.654Z,13.96
2023-09-08T01:53:30.720Z,13.95
2023-09-08T01:55:58.986Z,13.92
2023-09-08T01:58:27.741Z,13.90
2023-09-08T02:00:56.698Z,13.88
2023-09-08T02:03:24.822Z,13.87
2023-09-08T02:05:52.874Z,13.85
2023-09-08T02:08:21.086Z,13.83
2023-09-08T02:11:14.402Z,13.82
2023-09-08T02:13:45.354Z,13.81
2023-09-08T02:16:17.731Z,13.80
2023-09-08T02:18:46.909Z,13.78
2023-09-08T02:21:15.068Z,13.77
2023-09-08T02:23:43.210Z,13.77
2023-09-08T02:26:12.241Z,13.78
2023-09-08T02:28:40.360Z,13.77
2023-09-08T02:31:08.552Z,13.76
2023-09-08T02:33:36.718Z,13.76
2023-09-08T02:36:07.033Z,13.78
2023-09-08T02:38:37.151Z,13.80
2023-09-08T02:41:06.905Z,13.82
2023-09-08T02:43:34.992Z,13.84
2023-09-08T02:46:03.177Z,13.84
2023-09-08T02:48:32.685Z,13.84
2023-09-08T02:51:00.770Z,13.86
2023-09-08T02:53:30.053Z,13.87
2023-09-08T02:55:59.451Z,13.88
2023-09-08T02:58:28.876Z,13.89
2023-09-08T03:00:57.913Z,13.91
2023-09-08T03:03:26.144Z,13.94
2023-09-08T03:05:57.813Z,13.96
2023-09-08T03:08:26.639Z,13.97
2023-09-08T03:10:57.969Z,13.96
2023-09-08T03:13:30.356Z,13.94
2023-09-08T03:15:58.653Z,13.93
2023-09-08T03:18:26.782Z,13.94
2023-09-08T03:20:55.153Z,13.96
2023-09-08T03:23:23.848Z,13.97
2023-09-08T03:25:51.838Z,13.99
2023-09-08T03:28:20.004Z,14.00
2023-09-08T03:30:47.967Z,13.98
2023-09-08T03:33:16.373Z,13.97
2023-09-08T03:35:45.349Z,13.96
2023-09-08T03:38:13.494Z,13.96
2023-09-08T03:40:42.002Z,13.94
2023-09-08T03:43:10.121Z,13.93
2023-09-08T03:45:38.164Z,13.91
2023-09-08T03:48:06.890Z,13.90
2023-09-08T03:50:35.998Z,13.89
2023-09-08T03:53:04.941Z,13.88
2023-09-08T03:55:33.745Z,13.86
2023-09-08T03:58:01.744Z,13.86
2023-09-08T04:05:17.618Z,13.93
2023-09-08T04:07:46.998Z,13.99
2023-09-08T04:10:15.910Z,14.03
2023-09-08T04:12:45.411Z,14.09
2023-09-08T04:15:13.640Z,14.14
2023-09-08T04:17:41.919Z,14.20
2023-09-08T04:20:10.674Z,14.24
2023-09-08T04:22:38.703Z,14.30
2023-09-08T04:25:07.882Z,14.37
2023-09-08T04:27:37.881Z,14.50
2023-09-08T04:34:41.531Z,15.30
2023-09-08T04:37:10.268Z,15.69
2023-09-08T04:39:38.510Z,16.13
2023-09-08T04:42:07.464Z,16.57
2023-09-08T04:44:35.617Z,17.05
2023-09-08T04:47:04.560Z,17.54
2023-09-08T04:49:33.082Z,17.87
2023-09-08T04:52:01.511Z,18.01
2023-09-08T04:54:31.145Z,18.08
2023-09-08T04:57:11.785Z,18.11
2023-09-08T04:59:49.288Z,18.15
2023-09-08T05:02:19.784Z,18.22
2023-09-08T05:04:48.476Z,18.30
2023-09-08T05:07:18.330Z,18.39
2023-09-08T05:09:46.542Z,18.47
2023-09-08T05:12:14.895Z,18.58
2023-09-08T05:14:43.318Z,18.74
2023-09-08T05:17:12.247Z,18.85
2023-09-08T05:19:40.327Z,18.96
2023-09-08T05:22:08.474Z,19.07
2023-09-08T05:24:36.608Z,19.18
2023-09-08T05:27:05.734Z,19.28
2023-09-08T05:29:34.978Z,19.36
2023-09-08T05:32:03.531Z,19.44
2023-09-08T05:34:32.305Z,19.52
2023-09-08T05:37:00.573Z,19.58
2023-09-08T05:39:29.113Z,19.64
2023-09-08T05:41:57.818Z,19.82
2023-09-08T05:44:26.501Z,19.99
2023-09-08T05:46:55.479Z,20.12
2023-09-08T05:49:25.041Z,20.24
2023-09-08T05:51:53.330Z,20.34
2023-09-08T05:54:21.677Z,20.47
2023-09-08T05:56:49.894Z,20.59
2023-09-08T05:59:17.793Z,20.73
2023-09-08T06:01:46.234Z,20.93
2023-09-08T06:04:14.811Z,21.13
2023-09-08T06:06:43.350Z,21.33
2023-09-08T06:09:13.312Z,21.52
2023-09-08T06:11:41.855Z,21.72
2023-09-08T06:14:10.656Z,21.96
2023-09-08T06:16:41.391Z,22.15
2023-09-08T06:19:10.156Z,22.33
2023-09-08T06:21:38.245Z,22.53
2023-09-08T06:24:07.884Z,22.64
2023-09-08T06:26:36.674Z,22.77
2023-09-08T06:29:05.118Z,22.97
2023-09-08T06:31:33.243Z,23.20
2023-09-08T06:34:01.611Z,23.39
2023-09-08T06:36:30.438Z,23.61
2023-09-08T06:38:58.655Z,23.84
2023-09-08T06:41:28.336Z,24.02
2023-09-08T06:43:57.483Z,24.28
2023-09-08T06:46:29.688Z,24.61
2023-09-08T06:48:58.478Z,24.94
2023-09-08T06:51:26.930Z,25.28
2023-09-08T06:53:57.779Z,25.50
2023-09-08T06:56:28.048Z,25.83
2023-09-08T06:58:56.335Z,26.18
2023-09-08T07:01:25.028Z,26.54
2023-09-08T07:03:53.342Z,26.90
2023-09-08T07:06:25.509Z,27.15
2023-09-08T07:08:53.763Z,27.36
2023-09-08T07:11:22.454Z,27.53
2023-09-08T07:13:50.612Z,27.73
2023-09-08T07:16:19.280Z,27.82
2023-09-08T07:18:47.429Z,27.96
2023-09-08T07:21:15.505Z,28.18
2023-09-08T07:23:43.713Z,28.51
2023-09-08T07:26:12.049Z,28.55
2023-09-08T07:28:41.421Z,28.71
2023-09-08T07:31:13.006Z,28.99
2023-09-08T07:33:42.636Z,29.27
2023-09-08T07:36:11.826Z,29.29
2023-09-08T07:38:40.925Z,29.22
2023-09-08T07:41:09.382Z,29.09
2023-09-08T07:43:41.914Z,29.34
2023-09-08T07:46:11.709Z,29.55
2023-09-08T07:48:40.014Z,29.84
2023-09-08T07:51:08.233Z,30.10
2023-09-08T07:53:36.168Z,30.10
2023-09-08T07:56:05.640Z,30.40
2023-09-08T07:58:34.519Z,30.68
2023-09-08T08:01:04.074Z,30.89
2023-09-08T08:03:32.055Z,30.98
2023-09-08T08:06:00.170Z,30.89
2023-09-08T08:08:28.888Z,30.73
2023-09-08T08:10:56.888Z,31.03
2023-09-08T08:13:24.880Z,31.02
2023-09-08T08:15:52.959Z,30.81
2023-09-08T08:18:21.201Z,30.88
2023-09-08T08:20:49.402Z,30.98
2023-09-08T08:23:17.290Z,31.19
2023-09-08T08:25:45.230Z,31.49
2023-09-08T08:28:13.096Z,31.69
2023-09-08T08:30:41.142Z,31.84
2023-09-08T08:33:09.029Z,31.96
2023-09-08T08:35:37.246Z,31.94
2023-09-08T08:38:05.157Z,31.65
2023-09-08T08:40:35.167Z,31.35
2023-09-08T08:43:03.354Z,31.06
2023-09-08T08:45:31.968Z,30.80
2023-09-08T08:48:01.174Z,30.57
2023-09-08T08:50:29.494Z,30.44
2023-09-08T08:52:57.702Z,30.15
2023-09-08T08:55:27.129Z,30.00
2023-09-08T08:57:55.527Z,30.06
2023-09-08T09:00:23.671Z,30.03
2023-09-08T09:03:03.629Z,30.07
2023-09-08T09:05:43.306Z,30.08
2023-09-08T09:08:14.359Z,29.96
2023-09-08T09:10:42.349Z,29.74
2023-09-08T09:13:10.402Z,29.53
2023-09-08T09:15:38.385Z,29.42
2023-09-08T09:18:07.733Z,29.41
2023-09-08T09:20:36.912Z,29.40
2023-09-08T09:23:07.539Z,29.44
2023-09-08T09:25:37.482Z,29.49
2023-09-08T09:28:06.308Z,29.56
2023-09-08T09:30:50.717Z,29.71
2023-09-08T09:33:19.231Z,29.87
2023-09-08T09:35:51.073Z,29.86
2023-09-08T09:38:20.531Z,29.81
2023-09-08T09:40:50.285Z,29.83
2023-09-08T09:43:22.136Z,29.80
2023-09-08T09:45:51.863Z,29.74
2023-09-08T09:48:20.869Z,29.72
2023-09-08T09:50:49.940Z,29.65
2023-09-08T09:53:18.096Z,29.59
2023-09-08T09:55:46.665Z,29.37
2023-09-08T09:58:15.946Z,29.33
2023-09-08T10:00:49.642Z,29.48
2023-09-08T10:03:19.204Z,29.71
2023-09-08T10:05:49.674Z,29.86
2023-09-08T10:08:18.900Z,30.02
2023-09-08T10:10:48.797Z,30.14
2023-09-08T10:13:21.378Z,30.03
2023-09-08T10:15:51.290Z,29.88
2023-09-08T10:18:20.663Z,29.81
2023-09-08T10:20:49.329Z,29.79
2023-09-08T10:23:23.910Z,29.87
2023-09-08T10:25:55.884Z,29.93
2023-09-08T10:28:24.426Z,29.82
2023-09-08T10:30:53.130Z,29.63
2023-09-08T10:33:21.850Z,29.55
2023-09-08T10:35:50.115Z,29.42
2023-09-08T10:38:28.461Z,29.43
2023-09-08T10:41:15.373Z,29.56
2023-09-08T10:43:47.507Z,29.70
2023-09-08T10:46:22.600Z,29.80
2023-09-08T10:48:50.797Z,29.89
2023-09-08T10:51:19.034Z,29.91
2023-09-08T10:53:48.113Z,29.98
2023-09-08T10:56:18.232Z,30.05
2023-09-08T10:58:50.145Z,30.11
2023-09-08T11:04:39.291Z,30.17
2023-09-08T11:07:07.320Z,30.18
2023-09-08T11:09:38.773Z,30.17
2023-09-08T11:12:09.584Z,30.15
2023-09-08T11:14:37.772Z,30.01
2023-09-08T11:17:05.820Z,29.93
2023-09-08T11:19:48.747Z,29.78
2023-09-08T11:22:20.513Z,29.76
2023-09-08T11:24:49.791Z,29.87
2023-09-08T11:27:18.617Z,29.97
2023-09-08T11:29:46.935Z,29.98
2023-09-08T11:32:16.209Z,29.96
2023-09-08T11:34:49.249Z,29.96
2023-09-08T11:37:20.457Z,29.96
2023-09-08T11:39:48.903Z,29.94
2023-09-08T11:42:17.733Z,29.85
2023-09-08T11:44:45.951Z,29.81
2023-09-08T11:47:14.223Z,29.84
2023-09-08T11:49:43.327Z,29.68
2023-09-08T11:52:12.401Z,29.43
2023-09-08T11:54:51.912Z,29.34
2023-09-08T11:57:29.942Z,29.33
2023-09-08T11:59:59.269Z,29.27
2023-09-08T12:02:27.792Z,29.20
2023-09-08T12:04:56.164Z,29.11
2023-09-08T12:07:24.870Z,29.12
2023-09-08T12:09:52.945Z,29.02
2023-09-08T12:12:21.097Z,29.01
2023-09-08T12:14:49.130Z,29.04
2023-09-08T12:17:18.923Z,28.96
2023-09-08T12:19:47.075Z,28.91
2023-09-08T12:22:20.028Z,28.92
2023-09-08T12:25:09.643Z,28.92
2023-09-08T12:27:38.779Z,28.86
2023-09-08T12:30:09.656Z,28.79
2023-09-08T12:32:38.089Z,28.68
2023-09-08T12:35:06.451Z,28.55
2023-09-08T12:37:35.165Z,28.41
2023-09-08T12:40:03.432Z,28.32
2023-09-08T12:42:35.335Z,28.19
2023-09-08T12:45:08.902Z,27.96
2023-09-08T12:47:37.228Z,27.77
2023-09-08T12:50:06.265Z,27.74
2023-09-08T12:52:34.251Z,27.77
2023-09-08T12:55:02.296Z,27.81
2023-09-08T12:57:31.678Z,27.88
2023-09-08T13:00:00.252Z,27.94
2023-09-08T13:02:28.450Z,27.99
2023-09-08T13:04:56.987Z,28.06
2023-09-08T13:07:25.463Z,28.08
2023-09-08T13:09:53.931Z,28.13
2023-09-08T13:12:22.170Z,28.22
2023-09-08T13:14:50.547Z,28.27
2023-09-08T13:17:18.668Z,28.37
2023-09-08T13:19:46.744Z,28.47
2023-09-08T13:22:15.220Z,28.49
2023-09-08T13:24:43.997Z,28.42
2023-09-08T13:27:13.010Z,28.35
2023-09-08T13:29:41.058Z,28.24
2023-09-08T13:32:09.126Z,28.21
2023-09-08T13:34:37.381Z,28.24
2023-09-08T13:37:05.949Z,28.27
2023-09-08T13:39:34.174Z,28.24
2023-09-08T13:42:03.496Z,28.20
2023-09-08T13:44:41.400Z,28.18
2023-09-08T13:47:27.965Z,28.18
2023-09-08T13:49:58.455Z,28.12
2023-09-08T13:52:28.245Z,28.13
2023-09-08T13:57:30.590Z,28.27
2023-09-08T13:59:58.916Z,28.33
2023-09-08T14:05:02.613Z,28.23
2023-09-08T14:07:37.408Z,28.16
2023-09-08T14:12:41.659Z,28.02
2023-09-08T14:15:09.973Z,27.92
2023-09-08T14:17:38.332Z,27.84
2023-09-08T14:20:06.953Z,27.75
2023-09-08T14:22:34.904Z,27.64
2023-09-08T14:25:02.929Z,27.55
2023-09-08T14:27:30.839Z,27.47
2023-09-08T14:29:58.823Z,27.40
2023-09-08T14:32:26.776Z,27.30
2023-09-08T14:34:54.909Z,27.24
2023-09-08T14:37:23.685Z,27.20
2023-09-08T14:39:51.770Z,27.13
2023-09-08T14:42:19.836Z,27.05
2023-09-08T14:44:48.114Z,27.01
2023-09-08T14:47:16.169Z,26.95
2023-09-08T14:49:44.384Z,26.92
2023-09-08T14:52:12.410Z,26.91
2023-09-08T14:54:41.752Z,26.89
2023-09-08T14:57:10.015Z,26.85
2023-09-08T14:59:38.335Z,26.85
2023-09-08T15:02:07.779Z,26.84
2023-09-08T15:04:35.861Z,26.80
2023-09-08T15:07:04.798Z,26.78
2023-09-08T15:09:32.994Z,26.73
2023-09-08T15:12:01.038Z,26.65
2023-09-08T15:14:29.053Z,26.57
2023-09-08T15:16:57.029Z,26.51
2023-09-08T15:19:24.990Z,26.46
2023-09-08T15:21:52.927Z,26.39
2023-09-08T15:24:21.116Z,26.36
2023-09-08T15:26:51.185Z,26.34
2023-09-08T15:29:21.303Z,26.30
2023-09-08T15:31:49.955Z,26.26
2023-09-08T15:34:19.055Z,26.19
2023-09-08T15:36:48.998Z,26.15
2023-09-08T15:39:16.954Z,26.12
2023-09-08T15:41:45.932Z,26.08
2023-09-08T15:44:15.327Z,26.03
2023-09-08T15:46:43.978Z,25.99
2023-09-08T15:49:12.402Z,25.95
2023-09-08T15:51:41.569Z,25.87
2023-09-08T15:54:13.268Z,25.80
2023-09-08T15:56:41.305Z,25.77
2023-09-08T15:59:09.281Z,25.74
2023-09-08T16:01:37.628Z,25.67
2023-09-08T16:04:10.421Z,25.59
2023-09-08T16:06:39.045Z,25.49
2023-09-08T16:09:07.300Z,25.41
2023-09-08T16:11:35.270Z,25.33
2023-09-08T16:14:03.148Z,25.25
2023-09-08T16:16:31.497Z,25.23
2023-09-08T16:18:59.485Z,25.28
2023-09-08T16:21:27.443Z,25.27
2023-09-08T16:23:57.181Z,25.16
2023-09-08T16:26:25.537Z,25.02
2023-09-08T16:28:54.018Z,24.97
2023-09-08T16:31:22.028Z,24.93
2023-09-08T16:33:49.987Z,24.89
2023-09-08T16:36:18.978Z,24.83
2023-09-08T16:38:47.056Z,24.76
2023-09-08T16:41:15.024Z,24.68
2023-09-08T16:43:43.962Z,24.57
2023-09-08T16:46:15.427Z,24.47
2023-09-08T16:48:44.116Z,24.34
2023-09-08T16:51:12.116Z,24.20
2023-09-08T16:53:40.199Z,24.04
2023-09-08T16:56:10.311Z,23.89
2023-09-08T16:58:38.497Z,23.72
2023-09-08T17:01:06.569Z,23.55
2023-09-08T17:03:35.001Z,23.38
2023-09-08T17:06:03.214Z,23.19
2023-09-08T17:08:31.548Z,22.98
2023-09-08T17:11:06.858Z,22.79
2023-09-08T17:13:35.511Z,22.60
2023-09-08T17:16:04.205Z,22.43
2023-09-08T17:18:32.795Z,22.27
2023-09-08T17:21:01.597Z,22.13
2023-09-08T17:23:29.702Z,21.97
2023-09-08T17:25:57.774Z,21.78
2023-09-08T17:28:26.864Z,21.57
2023-09-08T17:30:55.103Z,21.38
2023-09-08T17:33:26.201Z,21.20
2023-09-08T17:35:54.287Z,21.04
2023-09-08T17:38:22.316Z,20.86
2023-09-08T17:40:51.459Z,20.69
2023-09-08T17:43:19.757Z,20.51
2023-09-08T17:45:47.836Z,20.37
2023-09-08T17:48:16.064Z,20.25
2023-09-08T17:50:44.900Z,20.13
2023-09-08T17:53:12.988Z,19.97
2023-09-08T17:55:41.042Z,19.84
2023-09-08T17:58:09.136Z,19.74
2023-09-08T18:00:37.243Z,19.65
2023-09-08T18:03:05.955Z,19.54
2023-09-08T18:05:34.144Z,19.43
2023-09-08T18:08:02.471Z,19.32
2023-09-08T18:10:30.707Z,19.19
2023-09-08T18:12:58.819Z,19.09
2023-09-08T18:15:26.984Z,19.01
2023-09-08T18:17:55.028Z,18.89
2023-09-08T18:20:23.343Z,18.77
2023-09-08T18:22:55.715Z,18.66
2023-09-08T18:25:24.066Z,18.59
2023-09-08T18:27:52.125Z,18.53
2023-09-08T18:30:20.275Z,18.46
2023-09-08T18:32:50.760Z,18.34
2023-09-08T18:35:18.683Z,18.26
2023-09-08T18:37:46.768Z,18.17
2023-09-08T18:40:14.804Z,18.08
2023-09-08T18:42:42.858Z,18.00
2023-09-08T18:45:11.388Z,17.92
2023-09-08T18:47:39.582Z,17.83
2023-09-08T18:50:08.169Z,17.76
2023-09-08T18:52:36.241Z,17.70
2023-09-08T18:55:07.404Z,17.60
2023-09-08T18:57:35.501Z,17.53
2023-09-08T19:04:36.434Z,17.32
2023-09-08T19:07:04.453Z,17.27
2023-09-08T19:09:32.481Z,17.25
2023-09-08T19:12:00.526Z,17.22
2023-09-08T19:14:29.715Z,17.18
2023-09-08T19:17:01.661Z,17.16
2023-09-08T19:19:30.103Z,17.12
2023-09-08T19:21:58.097Z,17.06
2023-09-08T19:24:26.134Z,17.01
2023-09-08T19:26:54.443Z,16.98
2023-09-08T19:29:22.828Z,16.91
2023-09-08T19:31:50.805Z,16.87
2023-09-08T19:34:19.521Z,16.81
2023-09-08T19:36:47.494Z,16.77
2023-09-08T19:39:15.460Z,16.73
2023-09-08T19:41:43.629Z,16.67
2023-09-08T19:44:11.601Z,16.62
2023-09-08T19:46:39.678Z,16.57
2023-09-08T19:49:07.903Z,16.52
2023-09-08T19:51:36.097Z,16.48
2023-09-08T19:54:04.232Z,16.43
2023-09-08T19:56:32.170Z,16.39
2023-09-08T19:59:01.910Z,16.35
2023-09-08T20:01:31.906Z,16.32
2023-09-08T20:04:01.586Z,16.27
2023-09-08T20:06:29.652Z,16.22
2023-09-08T20:08:58.079Z,16.18
2023-09-08T20:11:26.354Z,16.13
2023-09-08T20:13:55.209Z,16.08
2023-09-08T20:16:23.280Z,16.04
2023-09-08T20:18:51.638Z,15.99
2023-09-08T20:21:19.692Z,15.94
2023-09-08T20:23:47.810Z,15.89
2023-09-08T20:26:15.758Z,15.85
2023-09-08T20:28:46.868Z,15.81
2023-09-08T20:31:17.481Z,15.77
2023-09-08T20:33:47.005Z,15.72
2023-09-08T20:36:16.031Z,15.69
2023-09-08T20:38:45.134Z,15.66
2023-09-08T20:41:13.694Z,15.63
2023-09-08T20:43:42.184Z,15.61
2023-09-08T20:46:10.277Z,15.59
2023-09-08T20:48:39.371Z,15.58
2023-09-08T20:51:11.821Z,15.56
2023-09-08T20:53:43.676Z,15.54
2023-09-08T20:56:11.869Z,15.50
2023-09-08T20:58:41.638Z,15.46
2023-09-08T21:01:10.833Z,15.43
2023-09-08T21:03:40.301Z,15.41
2023-09-08T21:06:11.015Z,15.40
2023-09-08T21:08:39.258Z,15.36
2023-09-08T21:11:07.682Z,15.33
2023-09-08T21:13:35.828Z,15.32
2023-09-08T21:16:04.397Z,15.28
2023-09-08T21:18:32.829Z,15.25
2023-09-08T21:21:00.911Z,15.22
2023-09-08T21:23:29.312Z,15.20
2023-09-08T21:25:57.457Z,15.18
2023-09-08T21:28:25.702Z,15.15
2023-09-08T21:31:08.776Z,15.11
2023-09-08T21:33:39.373Z,15.08
2023-09-08T21:36:11.982Z,15.06
2023-09-08T21:38:40.414Z,15.03
2023-09-08T21:41:10.916Z,15.00
2023-09-08T21:43:39.928Z,15.01
2023-09-08T21:46:09.940Z,14.99
2023-09-08T21:48:39.700Z,14.96
2023-09-08T21:51:08.482Z,14.94
2023-09-08T21:53:36.541Z,14.91
2023-09-08T21:56:04.718Z,14.87
2023-09-08T21:58:33.105Z,14.85
2023-09-08T22:01:01.964Z,14.82
2023-09-08T22:03:31.897Z,14.81
2023-09-08T22:06:00.461Z,14.78
2023-09-08T22:08:28.930Z,14.77
2023-09-08T22:11:06.097Z,14.76
2023-09-08T22:13:36.695Z,14.75
2023-09-08T22:16:06.369Z,14.72
2023-09-08T22:18:34.810Z,14.70
2023-09-08T22:21:03.787Z,14.70
2023-09-08T22:23:34.100Z,14.69
2023-09-08T22:26:03.869Z,14.66
2023-09-08T22:28:31.943Z,14.63
2023-09-08T22:31:00.086Z,14.60
2023-09-08T22:33:30.581Z,14.57
2023-09-08T22:35:59.357Z,14.55
2023-09-08T22:38:28.481Z,14.52
2023-09-08T22:40:56.720Z,14.50
2023-09-08T22:43:25.728Z,14.48
2023-09-08T22:45:54.793Z,14.47
2023-09-08T22:48:23.294Z,14.44
2023-09-08T22:50:51.814Z,14.41
2023-09-08T22:53:20.980Z,14.38
2023-09-08T22:55:49.125Z,14.35
2023-09-08T22:58:17.816Z,14.31
2023-09-08T23:00:46.057Z,14.28
2023-09-08T23:03:14.151Z,14.26
2023-09-08T23:05:42.466Z,14.26
2023-09-08T23:08:10.658Z,14.25
2023-09-08T23:10:38.781Z,14.23
2023-09-08T23:13:06.715Z,14.21
2023-09-08T23:15:34.912Z,14.20
2023-09-08T23:18:03.547Z,14.19
2023-09-08T23:20:31.666Z,14.14
2023-09-08T23:23:00.171Z,14.11
2023-09-08T23:25:28.481Z,14.09
2023-09-08T23:27:56.476Z,14.07
2023-09-08T23:30:24.751Z,14.05
2023-09-08T23:32:52.762Z,14.03
2023-09-08T23:35:20.900Z,14.03
2023-09-08T23:37:49.054Z,14.00
2023-09-08T23:40:18.070Z,13.99
2023-09-08T23:42:46.052Z,13.96
2023-09-08T23:45:14.247Z,13.93
2023-09-08T23:47:42.276Z,13.89
2023-09-08T23:50:10.527Z,13.88
2023-09-08T23:52:39.025Z,13.85
2023-09-08T23:55:07.492Z,13.81
2023-09-08T23:57:35.526Z,13.78
